createdAt,value
2022-12-28T00:29:19.681Z,1009.05
2022-12-28T00:30:00.164Z,1009.04
2022-12-28T00:30:40.603Z,1009.07
2022-12-28T00:31:21.070Z,1008.95
2022-12-28T00:32:01.591Z,1009.01
2022-12-28T00:32:42.083Z,1009.06
2022-12-28T00:33:22.591Z,1009.04
2022-12-28T00:34:03.063Z,1009.03
2022-12-28T00:34:43.541Z,1009.08
2022-12-28T00:35:24.022Z,1009.01
2022-12-28T00:36:04.517Z,1009.05
2022-12-28T00:37:08.074Z,1009.06
2022-12-28T00:37:25.510Z,1009.05
2022-12-28T00:38:05.996Z,1009.03
2022-12-28T00:38:46.470Z,1009.08
2022-12-28T00:39:26.959Z,1009.01
2022-12-28T00:40:07.454Z,1009.01
2022-12-28T00:40:47.920Z,1008.98
2022-12-28T00:41:28.422Z,1008.92
2022-12-28T00:42:08.884Z,1008.91
2022-12-28T00:42:49.363Z,1008.9
2022-12-28T00:43:29.857Z,1008.92
2022-12-28T00:44:10.369Z,1008.93
2022-12-28T00:44:50.880Z,1008.89
2022-12-28T00:46:11.902Z,1008.93
2022-12-28T00:46:52.364Z,1008.93
2022-12-28T00:47:32.862Z,1008.93
2022-12-28T00:48:13.379Z,1008.9
2022-12-28T00:48:53.835Z,1008.98
2022-12-28T00:49:34.348Z,1008.95
2022-12-28T00:50:14.827Z,1008.92
2022-12-28T00:50:55.302Z,1008.94
2022-12-28T00:51:35.841Z,1008.94
2022-12-28T00:52:16.325Z,1008.94
2022-12-28T00:52:56.807Z,1008.88
2022-12-28T00:53:37.286Z,1008.87
2022-12-28T00:54:17.777Z,1008.82
2022-12-28T00:54:58.281Z,1008.79
2022-12-28T00:55:38.777Z,1008.76
2022-12-28T00:56:19.302Z,1008.67
2022-12-28T00:56:59.756Z,1008.77
2022-12-28T00:57:40.245Z,1008.71
2022-12-28T00:58:20.759Z,1008.69
2022-12-28T00:59:01.245Z,1008.67
2022-12-28T00:59:41.718Z,1008.68
2022-12-28T01:00:22.213Z,1008.67
2022-12-28T01:01:02.767Z,1008.71
2022-12-28T01:01:43.408Z,1008.71
2022-12-28T01:02:23.699Z,1008.68
2022-12-28T01:03:44.653Z,1008.66
2022-12-28T01:04:25.153Z,1008.64
2022-12-28T01:05:05.629Z,1008.57
2022-12-28T01:05:46.129Z,1008.68
2022-12-28T01:06:26.617Z,1008.59
2022-12-28T01:07:07.126Z,1008.57
2022-12-28T01:07:47.597Z,1008.54
2022-12-28T01:08:28.067Z,1008.57
2022-12-28T01:09:08.566Z,1008.5
2022-12-28T01:09:49.067Z,1008.5
2022-12-28T01:11:10.048Z,1008.55
2022-12-28T01:11:50.575Z,1008.55
2022-12-28T01:12:36.283Z,1008.55
2022-12-28T01:13:11.576Z,1008.5
2022-12-28T01:13:52.084Z,1008.49
2022-12-28T01:14:32.580Z,1008.5
2022-12-28T01:15:13.050Z,1008.52
2022-12-28T01:15:53.605Z,1008.46
2022-12-28T01:16:34.265Z,1008.43
2022-12-28T01:17:14.633Z,1008.41
2022-12-28T01:17:55.144Z,1008.44
2022-12-28T01:18:35.631Z,1008.39
2022-12-28T01:19:16.127Z,1008.37
2022-12-28T01:19:56.622Z,1008.36
2022-12-28T01:20:37.087Z,1008.33
2022-12-28T01:21:17.590Z,1008.31
2022-12-28T01:21:58.051Z,1008.33
2022-12-28T01:22:38.543Z,1008.3
2022-12-28T01:23:19.027Z,1008.26
2022-12-28T01:23:59.512Z,1008.32
2022-12-28T01:24:40.003Z,1008.25
2022-12-28T01:25:20.494Z,1008.3
2022-12-28T01:26:00.989Z,1008.33
2022-12-28T01:26:41.496Z,1008.3
2022-12-28T01:27:21.955Z,1008.35
2022-12-28T01:28:02.470Z,1008.33
2022-12-28T01:28:42.964Z,1008.35
2022-12-28T01:29:23.442Z,1008.31
2022-12-28T01:30:03.938Z,1008.33
2022-12-28T01:30:44.417Z,1008.33
2022-12-28T01:31:24.983Z,1008.3
2022-12-28T01:32:05.407Z,1008.31
2022-12-28T01:32:45.852Z,1008.27
2022-12-28T01:33:26.310Z,1008.23
2022-12-28T01:34:06.847Z,1008.23
2022-12-28T01:34:47.302Z,1008.19
2022-12-28T01:35:27.804Z,1008.15
2022-12-28T01:36:08.283Z,1008.11
2022-12-28T01:36:48.752Z,1008.1
2022-12-28T01:37:29.261Z,1008.11
2022-12-28T01:38:09.764Z,1008.03
2022-12-28T01:38:50.246Z,1008.04
2022-12-28T01:39:30.744Z,1008.07
2022-12-28T01:40:11.236Z,1008.08
2022-12-28T01:41:32.183Z,1008.03
2022-12-28T01:42:12.669Z,1008.01
2022-12-28T01:42:53.169Z,1008.03
2022-12-28T01:43:33.660Z,1008.01
2022-12-28T01:44:14.161Z,1008.01
2022-12-28T01:44:54.653Z,1007.98
2022-12-28T01:45:35.209Z,1007.97
2022-12-28T01:46:15.714Z,1007.98
2022-12-28T01:46:56.190Z,1007.92
2022-12-28T01:47:36.668Z,1007.85
2022-12-28T01:48:17.150Z,1007.9
2022-12-28T01:48:57.652Z,1007.87
2022-12-28T01:49:38.145Z,1007.94
2022-12-28T01:50:18.657Z,1007.81
2022-12-28T01:50:59.152Z,1007.81
2022-12-28T01:51:39.627Z,1007.87
2022-12-28T01:52:20.133Z,1007.87
2022-12-28T01:53:00.593Z,1007.8
2022-12-28T01:53:41.056Z,1007.81
2022-12-28T01:54:21.531Z,1007.83
2022-12-28T01:55:02.026Z,1007.87
2022-12-28T01:55:42.508Z,1007.88
2022-12-28T01:56:22.991Z,1007.8
2022-12-28T01:57:03.462Z,1007.77
2022-12-28T01:57:43.968Z,1007.8
2022-12-28T01:58:24.516Z,1007.8
2022-12-28T01:59:04.994Z,1007.71
2022-12-28T01:59:45.512Z,1007.65
2022-12-28T02:00:25.974Z,1007.76
2022-12-28T02:01:06.558Z,1007.82
2022-12-28T02:01:47.102Z,1007.72
2022-12-28T02:02:27.654Z,1007.76
2022-12-28T02:03:08.048Z,1007.68
2022-12-28T02:03:48.491Z,1007.67
2022-12-28T02:04:28.987Z,1007.67
2022-12-28T02:05:09.443Z,1007.67
2022-12-28T02:05:49.962Z,1007.67
2022-12-28T02:06:30.462Z,1007.66
2022-12-28T02:07:10.950Z,1007.59
2022-12-28T02:07:51.423Z,1007.56
2022-12-28T02:08:31.914Z,1007.57
2022-12-28T02:09:12.417Z,1007.53
2022-12-28T02:10:41.839Z,1007.6
2022-12-28T02:10:42.007Z,1007.58
2022-12-28T02:11:13.909Z,1007.5
2022-12-28T02:14:27.511Z,1007.39
2022-12-28T02:15:08.003Z,1007.44
2022-12-28T02:15:48.521Z,1007.41
2022-12-28T02:16:29.024Z,1007.4
2022-12-28T02:17:09.508Z,1007.43
2022-12-28T02:17:49.957Z,1007.42
2022-12-28T02:18:30.405Z,1007.43
2022-12-28T02:19:10.893Z,1007.42
2022-12-28T02:19:51.377Z,1007.42
2022-12-28T02:20:31.854Z,1007.45
2022-12-28T02:21:13.303Z,1007.46
2022-12-28T02:21:53.817Z,1007.42
2022-12-28T02:22:34.319Z,1007.38
2022-12-28T02:23:14.765Z,1007.36
2022-12-28T02:23:55.249Z,1007.37
2022-12-28T02:24:35.700Z,1007.36
2022-12-28T02:25:16.265Z,1007.39
2022-12-28T02:25:56.781Z,1007.35
2022-12-28T02:26:37.271Z,1007.3
2022-12-28T02:27:17.759Z,1007.35
2022-12-28T02:27:58.252Z,1007.35
2022-12-28T02:28:38.729Z,1007.29
2022-12-28T02:29:19.229Z,1007.28
2022-12-28T02:29:59.738Z,1007.23
2022-12-28T02:30:40.290Z,1007.11
2022-12-28T02:31:20.730Z,1007.28
2022-12-28T02:32:01.233Z,1007.26
2022-12-28T02:32:42.689Z,1007.22
2022-12-28T02:33:23.208Z,1007.23
2022-12-28T02:34:03.680Z,1007.27
2022-12-28T02:34:44.227Z,1007.23
2022-12-28T02:35:24.739Z,1007.22
2022-12-28T02:36:05.222Z,1007.23
2022-12-28T02:36:45.704Z,1007.14
2022-12-28T02:37:26.233Z,1007.15
2022-12-28T02:38:06.702Z,1007.14
2022-12-28T02:38:47.211Z,1007.18
2022-12-28T02:39:27.753Z,1007.07
2022-12-28T02:40:08.226Z,1007.09
2022-12-28T02:40:48.726Z,1007.07
2022-12-28T02:41:29.205Z,1007.03
2022-12-28T02:42:09.729Z,1006.96
2022-12-28T02:42:50.220Z,1007.04
2022-12-28T02:43:30.723Z,1007.02
2022-12-28T02:44:11.223Z,1007.02
2022-12-28T02:44:51.725Z,1007.04
2022-12-28T02:45:32.170Z,1007
2022-12-28T02:46:12.637Z,1007.02
2022-12-28T02:46:53.138Z,1007
2022-12-28T02:47:33.627Z,1007.02
2022-12-28T02:48:14.099Z,1006.99
2022-12-28T02:48:54.632Z,1007.02
2022-12-28T02:49:35.054Z,1006.95
2022-12-28T02:50:15.546Z,1007
2022-12-28T02:50:56.017Z,1006.96
2022-12-28T02:51:36.524Z,1006.96
2022-12-28T02:52:17.008Z,1006.98
2022-12-28T02:52:57.500Z,1006.95
2022-12-28T02:53:38.015Z,1006.98
2022-12-28T02:54:18.441Z,1006.92
2022-12-28T02:54:58.917Z,1006.88
2022-12-28T02:55:39.439Z,1006.85
2022-12-28T02:56:19.913Z,1006.85
2022-12-28T02:57:00.379Z,1006.85
2022-12-28T02:57:40.880Z,1006.88
2022-12-28T02:58:21.361Z,1006.86
2022-12-28T03:00:34.037Z,1006.88
2022-12-28T03:01:14.703Z,1006.81
2022-12-28T03:01:55.390Z,1006.8
2022-12-28T03:02:35.938Z,1006.82
2022-12-28T03:03:16.361Z,1006.79
2022-12-28T03:03:56.892Z,1006.79
2022-12-28T03:04:37.305Z,1006.77
2022-12-28T03:05:17.796Z,1006.76
2022-12-28T03:05:58.335Z,1006.79
2022-12-28T03:06:38.777Z,1006.88
2022-12-28T03:07:19.248Z,1006.73
2022-12-28T03:07:59.756Z,1006.73
2022-12-28T03:08:40.250Z,1006.71
2022-12-28T03:09:20.723Z,1006.7
2022-12-28T03:10:01.184Z,1006.7
2022-12-28T03:10:41.641Z,1006.65
2022-12-28T03:11:22.105Z,1006.62
2022-12-28T03:12:43.098Z,1006.7
2022-12-28T03:13:23.623Z,1006.61
2022-12-28T03:14:04.121Z,1006.59
2022-12-28T03:14:44.613Z,1006.62
2022-12-28T03:15:25.149Z,1006.53
2022-12-28T03:16:05.657Z,1006.55
2022-12-28T03:16:46.100Z,1006.7
2022-12-28T03:18:07.323Z,1006.6
2022-12-28T03:18:47.755Z,1006.5
2022-12-28T03:19:28.258Z,1006.54
2022-12-28T03:20:49.200Z,1006.39
2022-12-28T03:21:29.705Z,1006.46
2022-12-28T03:22:10.181Z,1006.45
2022-12-28T03:22:51.226Z,1006.41
2022-12-28T03:23:31.720Z,1006.41
2022-12-28T03:24:12.185Z,1006.4
2022-12-28T03:24:52.676Z,1006.37
2022-12-28T03:25:33.167Z,1006.4
2022-12-28T03:26:13.649Z,1006.41
2022-12-28T03:26:54.120Z,1006.38
2022-12-28T03:27:34.633Z,1006.38
2022-12-28T03:28:15.144Z,1006.34
2022-12-28T03:28:55.630Z,1006.34
2022-12-28T03:29:36.120Z,1006.43
2022-12-28T03:30:16.675Z,1006.3
2022-12-28T03:30:57.117Z,1006.33
2022-12-28T03:31:37.607Z,1006.35
2022-12-28T03:32:18.084Z,1006.32
2022-12-28T03:32:58.565Z,1006.36
2022-12-28T03:33:39.038Z,1006.3
2022-12-28T03:34:19.536Z,1006.26
2022-12-28T03:35:00.153Z,1006.22
2022-12-28T03:35:40.536Z,1006.26
2022-12-28T03:36:21.034Z,1006.19
2022-12-28T03:37:01.536Z,1006.17
2022-12-28T03:37:42.027Z,1006.16
2022-12-28T03:38:22.498Z,1006.16
2022-12-28T03:39:02.999Z,1006.2
2022-12-28T03:39:43.558Z,1006.14
2022-12-28T03:40:23.992Z,1006.08
2022-12-28T03:41:04.528Z,1006.12
2022-12-28T03:41:44.977Z,1006.12
2022-12-28T03:42:25.472Z,1006.09
2022-12-28T03:43:05.977Z,1006.1
2022-12-28T03:44:26.990Z,1006.02
2022-12-28T03:45:07.466Z,1006.1
2022-12-28T03:45:47.969Z,1005.99
2022-12-28T03:46:28.483Z,1005.9
2022-12-28T03:47:08.952Z,1005.99
2022-12-28T03:47:49.417Z,1005.96
2022-12-28T03:48:29.963Z,1005.94
2022-12-28T03:49:10.437Z,1005.93
2022-12-28T03:49:50.913Z,1005.99
2022-12-28T03:50:31.418Z,1005.89
2022-12-28T03:51:11.872Z,1005.9
2022-12-28T03:51:52.399Z,1005.8
2022-12-28T03:52:32.876Z,1005.83
2022-12-28T03:53:13.346Z,1005.78
2022-12-28T03:53:53.844Z,1005.77
2022-12-28T03:54:34.358Z,1005.84
2022-12-28T03:55:14.901Z,1005.8
2022-12-28T03:55:55.361Z,1005.79
2022-12-28T03:56:35.826Z,1005.79
2022-12-28T03:57:16.341Z,1005.78
2022-12-28T03:57:56.824Z,1005.83
2022-12-28T03:58:37.342Z,1005.81
2022-12-28T03:59:17.822Z,1005.83
2022-12-28T03:59:58.326Z,1005.84
2022-12-28T04:00:38.809Z,1005.82
2022-12-28T04:01:19.478Z,1005.91
2022-12-28T04:01:59.877Z,1005.85
2022-12-28T04:02:40.403Z,1005.83
2022-12-28T04:03:20.869Z,1005.85
2022-12-28T04:04:01.304Z,1005.86
2022-12-28T04:04:41.799Z,1005.82
2022-12-28T04:05:22.276Z,1005.77
2022-12-28T04:06:02.822Z,1005.85
2022-12-28T04:06:43.314Z,1005.79
2022-12-28T04:07:23.800Z,1005.84
2022-12-28T04:08:04.343Z,1005.79
2022-12-28T04:08:44.867Z,1005.87
2022-12-28T04:09:25.370Z,1005.82
2022-12-28T04:10:05.867Z,1005.78
2022-12-28T04:10:46.960Z,1005.81
2022-12-28T04:12:07.966Z,1005.78
2022-12-28T04:12:48.478Z,1005.71
2022-12-28T04:13:28.976Z,1005.69
2022-12-28T04:14:11.048Z,1005.73
2022-12-28T04:14:49.927Z,1005.65
2022-12-28T04:15:30.411Z,1005.73
2022-12-28T04:16:11.023Z,1005.66
2022-12-28T04:16:51.404Z,1005.66
2022-12-28T04:17:31.963Z,1005.62
2022-12-28T04:18:12.420Z,1005.65
2022-12-28T04:18:52.928Z,1005.6
2022-12-28T04:19:33.405Z,1005.65
2022-12-28T04:20:13.947Z,1005.56
2022-12-28T04:20:54.401Z,1005.55
2022-12-28T04:21:34.919Z,1005.52
2022-12-28T04:22:15.372Z,1005.57
2022-12-28T04:22:55.853Z,1005.47
2022-12-28T04:23:36.368Z,1005.51
2022-12-28T04:24:16.819Z,1005.51
2022-12-28T04:24:57.363Z,1005.55
2022-12-28T04:25:37.897Z,1005.46
2022-12-28T04:26:58.845Z,1005.58
2022-12-28T04:27:39.304Z,1005.56
2022-12-28T04:28:19.807Z,1005.56
2022-12-28T04:29:00.268Z,1005.54
2022-12-28T04:29:40.793Z,1005.58
2022-12-28T04:30:21.310Z,1005.57
2022-12-28T04:31:01.862Z,1005.44
2022-12-28T04:31:43.140Z,1005.53
2022-12-28T04:32:23.255Z,1005.56
2022-12-28T04:33:03.739Z,1005.54
2022-12-28T04:34:24.711Z,1005.55
2022-12-28T04:35:05.359Z,1005.5
2022-12-28T04:35:45.725Z,1005.53
2022-12-28T04:36:26.251Z,1005.48
2022-12-28T04:37:06.774Z,1005.52
2022-12-28T04:37:47.285Z,1005.58
2022-12-28T04:38:27.768Z,1005.57
2022-12-28T04:39:08.364Z,1005.59
2022-12-28T04:39:54.647Z,1005.58
2022-12-28T04:40:29.254Z,1005.53
2022-12-28T04:41:09.777Z,1005.62
2022-12-28T04:41:50.266Z,1005.62
2022-12-28T04:42:30.744Z,1005.57
2022-12-28T04:43:11.249Z,1005.6
2022-12-28T04:43:51.777Z,1005.56
2022-12-28T04:44:32.246Z,1005.62
2022-12-28T04:45:15.738Z,1005.58
2022-12-28T04:45:53.211Z,1005.58
2022-12-28T04:46:33.756Z,1005.58
2022-12-28T04:47:14.273Z,1005.55
2022-12-28T04:47:54.767Z,1005.54
2022-12-28T04:48:35.244Z,1005.52
2022-12-28T04:49:15.773Z,1005.48
2022-12-28T04:49:56.242Z,1005.56
2022-12-28T04:50:36.727Z,1005.52
2022-12-28T04:51:57.748Z,1005.54
2022-12-28T04:52:38.230Z,1005.54
2022-12-28T04:53:18.708Z,1005.35
2022-12-28T04:53:59.241Z,1005.49
2022-12-28T04:54:39.733Z,1005.36
2022-12-28T04:55:31.685Z,1005.43
2022-12-28T04:56:00.625Z,1005.37
2022-12-28T04:56:41.106Z,1005.39
2022-12-28T04:57:21.611Z,1005.34
2022-12-28T04:58:02.114Z,1005.34
2022-12-28T04:58:42.665Z,1005.35
2022-12-28T04:59:23.102Z,1005.36
2022-12-28T05:00:03.609Z,1005.3
2022-12-28T05:00:44.151Z,1005.34
2022-12-28T05:01:24.616Z,1005.34
2022-12-28T05:02:05.175Z,1005.33
2022-12-28T05:02:46.504Z,1005.32
2022-12-28T05:03:26.107Z,1005.29
2022-12-28T05:04:06.535Z,1005.25
2022-12-28T05:04:47.039Z,1005.31
2022-12-28T05:05:28.361Z,1005.29
2022-12-28T05:06:08.826Z,1005.29
2022-12-28T05:06:49.780Z,1005.32
2022-12-28T05:07:30.269Z,1005.3
2022-12-28T05:08:10.783Z,1005.25
2022-12-28T05:08:51.264Z,1005.23
2022-12-28T05:09:31.787Z,1005.25
2022-12-28T05:10:12.238Z,1005.2
2022-12-28T05:10:52.785Z,1005.21
2022-12-28T05:11:33.243Z,1005.14
2022-12-28T05:12:13.779Z,1005.16
2022-12-28T05:12:54.218Z,1005.16
2022-12-28T05:13:34.689Z,1005.14
2022-12-28T05:14:15.191Z,1005.15
2022-12-28T05:14:55.669Z,1005.21
2022-12-28T05:15:36.180Z,1005.05
2022-12-28T05:19:30.322Z,1005.12
2022-12-28T05:20:10.914Z,1005.13
2022-12-28T05:20:51.405Z,1005.15
2022-12-28T05:21:32.232Z,1005.17
2022-12-28T05:22:12.733Z,1005.14
2022-12-28T05:22:53.413Z,1005.21
2022-12-28T05:23:33.951Z,1005.18
2022-12-28T05:24:14.418Z,1005.2
2022-12-28T05:24:54.909Z,1005.18
2022-12-28T05:25:35.448Z,1005.15
2022-12-28T05:26:15.910Z,1005.18
2022-12-28T05:26:56.422Z,1005.18
2022-12-28T05:27:36.935Z,1005.09
2022-12-28T05:28:17.400Z,1005.15
2022-12-28T05:28:57.972Z,1005.13
2022-12-28T05:29:38.475Z,1005.09
2022-12-28T05:30:18.982Z,1005.14
2022-12-28T05:30:59.569Z,1005.18
2022-12-28T05:31:40.043Z,1005.12
2022-12-28T05:32:20.474Z,1005.16
2022-12-28T05:33:00.998Z,1005.1
2022-12-28T05:33:41.515Z,1005.04
2022-12-28T05:34:21.996Z,1005.09
2022-12-28T05:35:02.480Z,1005.16
2022-12-28T05:35:42.952Z,1005.11
2022-12-28T05:37:04.167Z,1005.1
2022-12-28T05:37:44.644Z,1005.14
2022-12-28T05:38:25.156Z,1005.11
2022-12-28T05:39:05.642Z,1005.06
2022-12-28T05:39:46.154Z,1005.11
2022-12-28T05:40:26.608Z,1005.08
2022-12-28T05:41:07.092Z,1005.09
2022-12-28T05:41:47.683Z,1005.03
2022-12-28T05:42:28.186Z,1005.05
2022-12-28T05:43:08.653Z,1005.01
2022-12-28T05:44:29.647Z,1005
2022-12-28T05:45:10.142Z,1005
2022-12-28T05:45:50.638Z,1005.05
2022-12-28T05:46:31.360Z,1005.08
2022-12-28T05:47:11.808Z,1005.04
2022-12-28T05:47:52.241Z,1005
2022-12-28T05:48:32.730Z,1004.9
2022-12-28T05:49:13.253Z,1005.04
2022-12-28T05:49:53.728Z,1005.02
2022-12-28T05:50:34.242Z,1004.91
2022-12-28T05:51:14.728Z,1005.02
2022-12-28T05:51:55.228Z,1005.03
2022-12-28T05:52:36.999Z,1005.05
2022-12-28T06:31:52.992Z,1004.65
2022-12-28T06:32:33.424Z,1004.63
2022-12-28T06:33:13.892Z,1004.64
2022-12-28T06:33:54.371Z,1004.63
2022-12-28T06:34:34.886Z,1004.61
2022-12-28T06:35:15.373Z,1004.54
2022-12-28T06:35:55.913Z,1004.61
2022-12-28T06:36:36.351Z,1004.61
2022-12-28T06:37:16.838Z,1004.61
2022-12-28T06:37:57.357Z,1004.59
2022-12-28T06:38:37.853Z,1004.59
2022-12-28T06:39:18.320Z,1004.62
2022-12-28T06:39:58.830Z,1004.6
2022-12-28T06:41:11.506Z,1004.59
2022-12-28T06:41:19.791Z,1004.61
2022-12-28T06:42:00.298Z,1004.59
2022-12-28T06:42:40.786Z,1004.61
2022-12-28T06:43:21.232Z,1004.63
2022-12-28T06:44:01.725Z,1004.57
2022-12-28T06:44:44.657Z,1004.48
2022-12-28T06:45:22.722Z,1004.56
2022-12-28T06:46:03.219Z,1004.59
2022-12-28T06:46:43.704Z,1004.59
2022-12-28T06:47:24.212Z,1004.63
2022-12-28T06:48:04.721Z,1004.55
2022-12-28T06:48:45.199Z,1004.55
2022-12-28T06:49:25.684Z,1004.54
2022-12-28T06:50:06.235Z,1004.6
2022-12-28T06:51:27.170Z,1004.44
2022-12-28T06:52:07.659Z,1004.56
2022-12-28T06:52:48.129Z,1004.59
2022-12-28T06:53:28.612Z,1004.6
2022-12-28T06:54:10.012Z,1004.55
2022-12-28T06:54:49.688Z,1004.55
2022-12-28T06:55:30.173Z,1004.51
2022-12-28T06:56:10.696Z,1004.6
2022-12-28T06:56:51.174Z,1004.56
2022-12-28T06:57:31.744Z,1004.59
2022-12-28T06:58:55.689Z,1004.48
2022-12-28T06:59:33.114Z,1004.53
2022-12-28T07:00:13.699Z,1004.5
2022-12-28T07:00:54.253Z,1004.54
2022-12-28T07:01:34.974Z,1004.44
2022-12-28T07:02:15.381Z,1004.49
2022-12-28T07:02:55.708Z,1004.52
2022-12-28T07:03:36.143Z,1004.55
2022-12-28T07:04:16.651Z,1004.52
2022-12-28T07:04:57.830Z,1004.59
2022-12-28T07:05:38.323Z,1004.51
2022-12-28T07:06:18.837Z,1004.47
2022-12-28T07:06:59.295Z,1004.46
2022-12-28T07:07:39.765Z,1004.49
2022-12-28T07:08:20.264Z,1004.48
2022-12-28T07:09:00.740Z,1004.43
2022-12-28T07:09:41.277Z,1004.44
2022-12-28T07:10:21.791Z,1004.48
2022-12-28T07:11:02.254Z,1004.49
2022-12-28T07:11:42.746Z,1004.46
2022-12-28T07:12:23.264Z,1004.5
2022-12-28T07:13:03.745Z,1004.47
2022-12-28T07:13:44.261Z,1004.48
2022-12-28T07:14:24.725Z,1004.49
2022-12-28T07:15:05.261Z,1004.57
2022-12-28T07:15:45.739Z,1004.48
2022-12-28T07:16:26.316Z,1004.46
2022-12-28T07:19:19.694Z,1004.52
2022-12-28T07:20:00.169Z,1004.53
2022-12-28T07:20:40.804Z,1004.49
2022-12-28T07:21:21.133Z,1004.41
2022-12-28T07:22:01.618Z,1004.46
2022-12-28T07:22:42.145Z,1004.47
2022-12-28T07:23:22.622Z,1004.5
2022-12-28T07:24:03.125Z,1004.48
2022-12-28T07:24:43.613Z,1004.45
2022-12-28T07:25:24.191Z,1004.44
2022-12-28T07:26:04.686Z,1004.16
2022-12-28T07:26:45.170Z,1004.44
2022-12-28T07:27:25.667Z,1004.49
2022-12-28T07:28:06.172Z,1004.49
2022-12-28T07:28:46.687Z,1004.5
2022-12-28T07:29:27.175Z,1004.48
2022-12-28T07:30:07.688Z,1004.5
2022-12-28T07:30:48.237Z,1004.47
2022-12-28T07:31:28.816Z,1004.5
2022-12-28T07:32:09.294Z,1004.47
2022-12-28T07:32:49.792Z,1004.46
2022-12-28T07:33:30.292Z,1004.47
2022-12-28T07:34:10.764Z,1004.49
2022-12-28T07:34:51.286Z,1004.49
2022-12-28T07:35:31.758Z,1004.49
2022-12-28T07:36:12.258Z,1004.5
2022-12-28T07:36:52.775Z,1004.52
2022-12-28T07:37:33.296Z,1004.5
2022-12-28T07:38:17.933Z,1004.49
2022-12-28T07:39:34.843Z,1004.44
2022-12-28T07:40:15.354Z,1004.45
2022-12-28T07:40:55.823Z,1004.43
2022-12-28T07:41:36.410Z,1004.49
2022-12-28T07:42:16.812Z,1004.49
2022-12-28T07:42:57.354Z,1004.46
2022-12-28T07:43:37.844Z,1004.49
2022-12-28T07:44:18.366Z,1004.48
2022-12-28T07:44:58.894Z,1004.45
2022-12-28T07:45:39.385Z,1004.49
2022-12-28T07:47:00.340Z,1004.4
2022-12-28T07:47:40.862Z,1004.46
2022-12-28T07:48:21.363Z,1004.42
2022-12-28T07:49:01.864Z,1004.46
2022-12-28T07:49:42.360Z,1004.5
2022-12-28T07:50:22.906Z,1004.41
2022-12-28T07:51:03.373Z,1004.55
2022-12-28T07:51:43.897Z,1004.41
2022-12-28T07:52:24.421Z,1004.48
2022-12-28T07:53:04.914Z,1004.43
2022-12-28T07:53:45.442Z,1004.41
2022-12-28T07:54:25.900Z,1004.35
2022-12-28T07:55:06.408Z,1004.49
2022-12-28T07:55:46.900Z,1004.47
2022-12-28T07:56:27.378Z,1004.48
2022-12-28T07:59:21.978Z,1004.49
2022-12-28T08:00:01.376Z,1004.49
2022-12-28T08:00:41.801Z,1004.51
2022-12-28T08:01:22.413Z,1004.55
2022-12-28T08:02:02.906Z,1004.52
2022-12-28T08:02:43.278Z,1004.52
2022-12-28T08:03:23.838Z,1004.54
2022-12-28T08:04:04.473Z,1004.51
2022-12-28T08:04:48.812Z,1004.49
2022-12-28T08:05:25.311Z,1004.44
2022-12-28T08:06:05.867Z,1004.45
2022-12-28T08:06:46.370Z,1004.44
2022-12-28T08:07:26.885Z,1004.44
2022-12-28T08:08:07.382Z,1004.54
2022-12-28T08:08:47.895Z,1004.48
2022-12-28T08:09:28.428Z,1004.43
2022-12-28T08:10:08.927Z,1004.42
2022-12-28T08:10:49.428Z,1004.49
2022-12-28T08:12:10.440Z,1004.43
2022-12-28T08:12:50.966Z,1004.37
2022-12-28T08:13:31.477Z,1004.38
2022-12-28T08:14:11.965Z,1004.42
2022-12-28T08:14:52.486Z,1004.49
2022-12-28T08:15:33.009Z,1004.42
2022-12-28T08:16:13.549Z,1004.43
2022-12-28T08:16:53.990Z,1004.32
2022-12-28T08:17:34.499Z,1004.43
2022-12-28T08:18:15.054Z,1004.45
2022-12-28T08:18:55.518Z,1004.42
2022-12-28T08:19:36.007Z,1004.5
2022-12-28T08:20:16.479Z,1004.47
2022-12-28T08:20:57.020Z,1004.46
2022-12-28T08:21:37.569Z,1004.45
2022-12-28T08:22:18.061Z,1004.41
2022-12-28T08:22:58.565Z,1004.44
2022-12-28T08:23:39.069Z,1004.46
2022-12-28T08:24:19.571Z,1004.4
2022-12-28T08:25:00.153Z,1004.39
2022-12-28T08:25:40.579Z,1004.4
2022-12-28T08:26:21.135Z,1004.3
2022-12-28T08:27:01.632Z,1004.41
2022-12-28T08:27:42.096Z,1004.4
2022-12-28T08:28:22.606Z,1004.41
2022-12-28T08:29:43.628Z,1004.38
2022-12-28T08:30:24.116Z,1004.42
2022-12-28T08:31:04.664Z,1004.36
2022-12-28T08:31:45.129Z,1004.32
2022-12-28T08:32:25.636Z,1004.33
2022-12-28T08:33:06.103Z,1004.41
2022-12-28T08:33:46.611Z,1004.39
2022-12-28T08:34:27.447Z,1004.4
2022-12-28T08:35:07.622Z,1004.39
2022-12-28T08:35:48.104Z,1004.37
2022-12-28T08:36:28.658Z,1004.37
2022-12-28T08:37:09.196Z,1004.47
2022-12-28T08:37:49.653Z,1004.31
2022-12-28T08:38:30.147Z,1004.45
2022-12-28T08:39:10.632Z,1004.42
2022-12-28T08:39:51.116Z,1004.45
2022-12-28T08:40:31.624Z,1004.46
2022-12-28T08:41:12.123Z,1004.42
2022-12-28T08:41:52.641Z,1004.42
2022-12-28T08:42:33.102Z,1004.35
2022-12-28T08:43:13.585Z,1004.41
2022-12-28T08:43:54.092Z,1004.43
2022-12-28T08:44:34.582Z,1004.33
2022-12-28T08:45:15.075Z,1004.35
2022-12-28T08:45:55.676Z,1004.52
2022-12-28T08:47:16.587Z,1004.47
2022-12-28T08:47:57.040Z,1004.44
2022-12-28T08:48:37.560Z,1004.44
2022-12-28T08:49:18.054Z,1004.47
2022-12-28T08:49:58.585Z,1004.47
2022-12-28T08:50:39.086Z,1004.43
2022-12-28T08:51:19.588Z,1004.44
2022-12-28T08:52:00.103Z,1004.48
2022-12-28T08:52:40.608Z,1004.45
2022-12-28T08:53:21.063Z,1004.42
2022-12-28T08:54:01.547Z,1004.41
2022-12-28T08:54:42.069Z,1004.42
2022-12-28T08:55:22.542Z,1004.42
2022-12-28T08:56:06.558Z,1004.45
2022-12-28T08:57:24.099Z,1004.45
2022-12-28T08:58:04.569Z,1004.41
2022-12-28T08:58:45.107Z,1004.42
2022-12-28T09:00:43.166Z,1004.4
2022-12-28T09:01:23.752Z,1004.38
2022-12-28T09:02:04.269Z,1004.43
2022-12-28T09:02:44.725Z,1004.43
2022-12-28T09:03:25.211Z,1004.41
2022-12-28T09:04:05.651Z,1004.43
2022-12-28T09:04:46.157Z,1004.43
2022-12-28T09:05:26.649Z,1004.3
2022-12-28T09:06:07.202Z,1004.4
2022-12-28T09:06:47.675Z,1004.41
2022-12-28T09:07:28.140Z,1004.39
2022-12-28T09:08:08.661Z,1004.39
2022-12-28T09:09:04.707Z,1004.36
2022-12-28T09:09:29.625Z,1004.33
2022-12-28T09:10:10.201Z,1004.34
2022-12-28T09:10:50.596Z,1004.43
2022-12-28T09:11:31.058Z,1004.39
2022-12-28T09:12:11.586Z,1004.37
2022-12-28T09:12:52.025Z,1004.39
2022-12-28T09:13:32.509Z,1004.38
2022-12-28T09:14:18.812Z,1004.41
2022-12-28T09:14:53.502Z,1004.39
2022-12-28T09:15:34.015Z,1004.36
2022-12-28T09:16:14.582Z,1004.38
2022-12-28T09:17:35.550Z,1004.3
2022-12-28T09:18:16.017Z,1004.34
2022-12-28T09:18:56.502Z,1004.13
2022-12-28T09:19:36.974Z,1004.28
2022-12-28T09:20:17.470Z,1004.32
2022-12-28T09:20:57.980Z,1004.32
2022-12-28T09:21:38.513Z,1004.33
2022-12-28T09:22:19.000Z,1004.43
2022-12-28T09:22:59.550Z,1004.26
2022-12-28T09:23:40.054Z,1004.37
2022-12-28T09:24:20.536Z,1004.37
2022-12-28T09:25:01.009Z,1004.38
2022-12-28T09:25:41.521Z,1004.34
2022-12-28T09:26:22.006Z,1004.36
2022-12-28T09:27:02.506Z,1004.22
2022-12-28T09:27:42.982Z,1004.41
2022-12-28T09:28:23.536Z,1004.26
2022-12-28T09:29:03.989Z,1004.34
2022-12-28T09:29:44.497Z,1004.33
2022-12-28T09:30:25.011Z,1004.32
2022-12-28T09:31:05.532Z,1004.33
2022-12-28T09:31:46.014Z,1004.29
2022-12-28T09:32:26.548Z,1004.36
2022-12-28T09:33:07.061Z,1004.35
2022-12-28T09:34:23.239Z,1004.27
2022-12-28T09:34:37.118Z,1004.33
2022-12-28T09:35:09.155Z,1004.37
2022-12-28T09:35:49.658Z,1004.28
2022-12-28T09:36:30.114Z,1004.37
2022-12-28T09:37:10.588Z,1004.28
2022-12-28T09:37:51.688Z,1004.33
2022-12-28T09:38:31.593Z,1004.23
2022-12-28T09:39:12.290Z,1004.21
2022-12-28T09:39:55.556Z,1004.26
2022-12-28T09:40:33.164Z,1004.27
2022-12-28T09:41:13.634Z,1004.19
2022-12-28T09:41:54.147Z,1004.27
2022-12-28T09:42:34.644Z,1004.28
2022-12-28T09:43:15.129Z,1004.12
2022-12-28T09:43:55.616Z,1004.31
2022-12-28T09:44:36.185Z,1004.3
2022-12-28T09:45:16.675Z,1004.33
2022-12-28T09:45:57.180Z,1004.34
2022-12-28T09:46:37.724Z,1004.4
2022-12-28T09:47:18.177Z,1004.2
2022-12-28T09:47:58.685Z,1004.27